サンクトペテルブルク の空港の天気 - METARとTAF

プルコヴォ空港(サンクトペテルブルグ) ( ULLI / LED ) - ロシア サンクトペテルブルク
飛行場実況気象(Metar)
観測時間10/19 21:00 MSK (10/19 18:00 UTC)
風向・風速西 3m/s
視程10km以上
天気現象
全天の8割程度の雲 雲底高度 850m
気温7℃
湿度81%
気圧1017hPa
METARULLI 191800Z 27003MPS 9999 BKN028 07/04 Q1017 R28L/090060 NOSIG
過去の天気等 Google飛行場航空写真 Wunderground天気予報

過去48時間のMETAR

飛行場予報(TAF)
発表時間: 10/19 19:59 MSK (10/19 16:59 UTC)
予報対象時間: 19日21時 MSK ~ 20日21時 MSK
風向・風速西 3m/s
視程6000m
全天の8割程度の雲 雲底高度 340m
全天の8割程度の雲 雲底高度 610m
19日21時 MSK ~ 19日24時 MSK に一時的に
視程3100m
天気現象もや
全天の8割程度の雲 雲底高度 340m
20日0時 MSK ~ 20日3時 MSK に一時的に
風向・風速西北西 3m/s 瞬間風速 8m/s
視程1200m
天気現象地霧 もや
全天の8割程度の雲 雲底高度 210m
20日3時 MSK ~ 20日9時 MSK に一時的に
視程300m
天気現象
全天の8割程度の雲 雲底高度 60m
20日15時 MSK ~ 20日18時 MSK に一時的に
風向・風速北西 3m/s
視程3100m
天気現象弱いしゅう雨
全天の8割程度の雲 雲底高度 340m
全天の8割程度の積乱雲 雲底高度 460m
TAF COR ULLI 191659Z 1918/2018 27003MPS 6000 BKN011 BKN020
TEMPO 1918/1921 3100 BR BKN011
TEMPO 1921/1924 30003G08MPS 1200 MIFG BR BKN007
TEMPO 2000/2006 0300 FG BKN002
TEMPO 2012/2015 32003MPS 3100 -SHRA BKN011 BKN015CB